Time;durP1;ratioP1;P1;durP2;ratioP2;P2;SDS_P1;SDS_P2;PMS_P1;PMS_P2;Temp;Humidity;BMP_temperature;BMP_pressure;BME280_temperature;BME280_humidity;BME280_pressure;Samples;Min_cycle;Max_cycle;Signal;HPM_P1;HPM_P2
2021/05/31 00:01:08;;;;;;;5.50;3.50;;;17.80;64.80;;;;;;6321350;22;20041;-76
2021/05/31 00:03:34;;;;;;;4.10;3.20;;;17.80;64.80;;;;;;6321384;22;20486;-76
2021/05/31 00:06:00;;;;;;;3.67;3.05;;;17.70;64.70;;;;;;6321695;22;20011;-76
2021/05/31 00:08:26;;;;;;;4.30;3.40;;;17.80;64.70;;;;;;6321664;22;20007;-76
2021/05/31 00:10:52;;;;;;;4.13;3.47;;;17.70;64.70;;;;;;6321987;22;20066;-76
2021/05/31 00:13:19;;;;;;;4.13;3.65;;;17.70;64.70;;;;;;6321838;22;20039;-76
2021/05/31 00:15:45;;;;;;;4.95;3.17;;;17.70;64.60;;;;;;6310804;22;20019;-76
2021/05/31 00:18:15;;;;;;;4.07;3.22;;;17.70;64.60;;;;;;6321447;22;20035;-76
2021/05/31 00:20:42;;;;;;;3.70;3.28;;;17.70;64.60;;;;;;6311009;22;20021;-77
2021/05/31 00:23:08;;;;;;;4.72;3.42;;;17.70;64.60;;;;;;6321530;22;20011;-75
2021/05/31 00:25:34;;;;;;;3.70;3.10;;;17.70;64.60;;;;;;6321232;22;20007;-75
2021/05/31 00:28:00;;;;;;;3.88;3.50;;;17.70;64.60;;;;;;6321473;22;20262;-75
2021/05/31 00:30:25;;;;;;;3.97;3.17;;;17.70;64.60;;;;;;6310646;22;20015;-76
2021/05/31 00:32:53;;;;;;;5.43;3.00;;;17.70;64.60;;;;;;6320968;22;20099;-76
2021/05/31 00:35:19;;;;;;;3.20;2.78;;;17.70;64.60;;;;;;6320872;22;20006;-76
2021/05/31 00:37:45;;;;;;;4.10;2.72;;;17.60;64.50;;;;;;6321668;22;20062;-76
2021/05/31 00:40:11;;;;;;;4.28;3.03;;;17.60;64.50;;;;;;6320989;22;20435;-76
2021/05/31 00:42:39;;;;;;;3.35;2.70;;;17.60;64.50;;;;;;6321186;22;20011;-75
2021/05/31 00:45:08;;;;;;;4.53;3.20;;;17.60;64.50;;;;;;6320937;22;20014;-77
2021/05/31 00:47:34;;;;;;;3.95;2.95;;;17.60;64.50;;;;;;6293842;22;20304;-75
2021/05/31 00:50:00;;;;;;;4.40;2.90;;;17.60;64.50;;;;;;6310234;22;20026;-76
2021/05/31 00:52:27;;;;;;;3.00;2.75;;;17.60;64.50;;;;;;6321457;22;20018;-74
2021/05/31 00:54:53;;;;;;;3.83;2.63;;;17.60;64.50;;;;;;6294275;22;20011;-76
2021/05/31 00:57:19;;;;;;;3.28;2.80;;;17.60;64.50;;;;;;6320815;22;20073;-75
2021/05/31 00:59:45;;;;;;;3.58;2.88;;;17.60;64.60;;;;;;6310758;22;20011;-75
2021/05/31 01:02:12;;;;;;;4.10;2.70;;;17.60;64.50;;;;;;6321265;22;20034;-75
2021/05/31 01:04:38;;;;;;;2.72;2.47;;;17.60;64.50;;;;;;6310627;22;20072;-76
2021/05/31 01:07:15;;;;;;;4.85;2.80;;;17.60;64.50;;;;;;6320603;22;20296;-75
2021/05/31 01:09:59;;;;;;;2.85;2.50;;;17.60;64.50;;;;;;6311582;22;20015;-76
2021/05/31 01:12:29;;;;;;;4.22;2.63;;;17.60;64.50;;;;;;6320323;22;20354;-76
2021/05/31 01:15:04;;;;;;;3.22;2.70;;;17.60;64.50;;;;;;6320507;22;20011;-77
2021/05/31 01:17:46;;;;;;;4.45;2.90;;;17.50;64.50;;;;;;6321330;22;20052;-75
2021/05/31 01:20:46;;;;;;;3.40;2.60;;;17.60;64.50;;;;;;6320773;22;20015;-76
2021/05/31 01:23:14;;;;;;;4.30;2.42;;;17.60;64.50;;;;;;6293737;22;20072;-75
2021/05/31 01:25:58;;;;;;;4.28;3.08;;;17.50;64.50;;;;;;6320748;22;20007;-76
2021/05/31 01:28:42;;;;;;;4.30;2.83;;;17.50;64.50;;;;;;6321073;22;20011;-75
2021/05/31 01:31:08;;;;;;;3.05;2.75;;;17.50;64.60;;;;;;6321066;22;20007;-76
2021/05/31 01:33:35;;;;;;;3.25;2.40;;;17.60;64.60;;;;;;6320695;22;20011;-74
2021/05/31 01:36:04;;;;;;;3.53;2.40;;;17.60;64.70;;;;;;6320045;22;20432;-74
2021/05/31 01:38:32;;;;;;;3.70;2.47;;;17.50;64.70;;;;;;6310850;22;20007;-76
2021/05/31 01:41:00;;;;;;;3.78;2.72;;;17.50;64.70;;;;;;6320585;22;20087;-75
2021/05/31 01:43:27;;;;;;;4.20;2.78;;;17.50;64.70;;;;;;6310335;22;20011;-75
2021/05/31 01:45:53;;;;;;;4.18;2.80;;;17.50;64.70;;;;;;6320177;22;20046;-76
2021/05/31 01:48:19;;;;;;;4.78;2.78;;;17.50;64.70;;;;;;6310184;22;20030;-76
2021/05/31 01:50:45;;;;;;;4.50;2.88;;;17.50;64.60;;;;;;6320989;22;20397;-75
2021/05/31 01:53:13;;;;;;;3.35;2.40;;;17.50;64.60;;;;;;6320318;22;20475;-76
2021/05/31 01:55:39;;;;;;;4.88;2.45;;;17.50;64.60;;;;;;6293661;22;20046;-75
2021/05/31 01:58:06;;;;;;;3.70;2.42;;;17.50;64.60;;;;;;6320635;22;20011;-75
2021/05/31 02:00:33;;;;;;;5.60;2.50;;;17.50;64.60;;;;;;6320152;22;20049;-76
2021/05/31 02:03:01;;;;;;;5.05;2.40;;;17.50;64.60;;;;;;6320770;22;20050;-75
2021/05/31 02:05:28;;;;;;;3.53;2.63;;;17.50;64.60;;;;;;6320496;22;20011;-75
2021/05/31 02:07:55;;;;;;;3.22;2.70;;;17.50;64.60;;;;;;6320295;22;20011;-75
2021/05/31 02:10:21;;;;;;;5.00;2.83;;;17.50;64.60;;;;;;6320613;22;20018;-75
2021/05/31 02:12:58;;;;;;;4.22;2.92;;;17.50;64.60;;;;;;6320417;22;20342;-76
2021/05/31 02:15:30;;;;;;;3.83;2.78;;;17.50;64.60;;;;;;6320597;22;20011;-75
2021/05/31 02:18:23;;;;;;;2.75;2.30;;;17.40;64.60;;;;;;6320626;22;20313;-74
2021/05/31 02:20:54;;;;;;;2.95;2.70;;;17.40;64.60;;;;;;6320290;22;20060;-76
2021/05/31 02:23:21;;;;;;;4.97;2.83;;;17.50;64.70;;;;;;6320035;22;20019;-76
2021/05/31 02:25:49;;;;;;;4.90;2.35;;;17.40;64.60;;;;;;6320279;22;20007;-76
2021/05/31 02:28:15;;;;;;;3.45;2.58;;;17.40;64.60;;;;;;6321307;22;20078;-75
2021/05/31 02:30:42;;;;;;;4.10;2.90;;;17.40;64.60;;;;;;6320294;22;20042;-74
2021/05/31 02:33:08;;;;;;;4.82;3.03;;;17.40;64.60;;;;;;6293070;22;20269;-74
2021/05/31 02:35:37;;;;;;;3.65;2.70;;;17.40;64.70;;;;;;6319644;22;20011;-76
2021/05/31 02:38:05;;;;;;;4.05;2.85;;;17.40;64.60;;;;;;6309193;22;20420;-74
2021/05/31 02:40:32;;;;;;;4.38;2.92;;;17.40;64.70;;;;;;6320756;22;20022;-76
2021/05/31 02:43:06;;;;;;;4.43;2.53;;;17.40;64.70;;;;;;6319878;22;20323;-74
2021/05/31 02:45:35;;;;;;;4.00;3.10;;;17.40;64.60;;;;;;6309663;22;20090;-76
2021/05/31 02:48:02;;;;;;;5.45;3.33;;;17.40;64.70;;;;;;6320353;22;20015;-74
2021/05/31 02:50:28;;;;;;;3.28;2.95;;;17.40;64.70;;;;;;6309520;22;20027;-76
2021/05/31 02:52:55;;;;;;;4.28;3.08;;;17.40;64.70;;;;;;6320715;22;20400;-75
2021/05/31 02:55:24;;;;;;;3.42;3.13;;;17.40;64.70;;;;;;6320701;22;20011;-76
2021/05/31 02:57:51;;;;;;;3.58;2.90;;;17.40;64.70;;;;;;6309567;22;20337;-75
2021/05/31 03:00:19;;;;;;;4.60;3.30;;;17.40;64.70;;;;;;6320151;22;20011;-76
2021/05/31 03:02:46;;;;;;;4.93;3.30;;;17.40;64.70;;;;;;6319903;22;20408;-74
2021/05/31 03:05:15;;;;;;;3.55;2.90;;;17.40;64.70;;;;;;6309373;22;20021;-76
2021/05/31 03:07:42;;;;;;;4.55;3.20;;;17.40;64.70;;;;;;6320601;22;20019;-75
2021/05/31 03:10:10;;;;;;;5.03;3.00;;;17.40;64.70;;;;;;6320998;22;20007;-76
2021/05/31 03:12:36;;;;;;;5.93;3.13;;;17.40;64.70;;;;;;6320078;22;20015;-75
2021/05/31 03:15:07;;;;;;;4.35;3.40;;;17.40;64.60;;;;;;6309568;22;20062;-74
2021/05/31 03:17:33;;;;;;;5.07;3.53;;;17.40;64.70;;;;;;6319916;22;20015;-76
2021/05/31 03:19:59;;;;;;;4.25;2.97;;;17.30;64.60;;;;;;6319899;22;20448;-76
2021/05/31 03:22:24;;;;;;;3.50;3.10;;;17.30;64.60;;;;;;6320087;22;20026;-74
2021/05/31 03:24:50;;;;;;;4.45;3.15;;;17.30;64.60;;;;;;6309680;22;20065;-76
2021/05/31 03:27:16;;;;;;;3.88;3.10;;;17.30;64.50;;;;;;6282448;22;20266;-76
2021/05/31 03:29:42;;;;;;;6.45;3.25;;;17.30;64.60;;;;;;6320109;22;20095;-75
2021/05/31 03:32:08;;;;;;;6.25;4.13;;;17.30;64.50;;;;;;6320034;22;20394;-75
2021/05/31 03:34:34;;;;;;;5.05;3.47;;;17.30;64.60;;;;;;6320414;22;20018;-75
2021/05/31 03:37:00;;;;;;;4.95;3.47;;;17.40;64.60;;;;;;6293074;22;20007;-75
2021/05/31 03:39:26;;;;;;;5.55;3.92;;;17.30;65.20;;;;;;6319915;22;20007;-75
2021/05/31 03:41:52;;;;;;;4.25;3.40;;;17.30;64.60;;;;;;6319777;22;20011;-74
2021/05/31 03:44:18;;;;;;;4.65;3.58;;;17.30;64.60;;;;;;6309251;22;20012;-76
2021/05/31 03:46:44;;;;;;;4.20;3.67;;;17.30;64.60;;;;;;6319484;22;20011;-75
2021/05/31 03:49:10;;;;;;;3.92;3.30;;;17.30;64.60;;;;;;6316902;22;20400;-74
2021/05/31 03:51:36;;;;;;;5.35;3.70;;;17.30;64.60;;;;;;6322051;22;20030;-75
2021/05/31 03:54:02;;;;;;;4.82;3.25;;;17.30;64.60;;;;;;6321533;22;20011;-75
2021/05/31 03:56:30;;;;;;;3.88;3.47;;;17.30;64.60;;;;;;6321298;22;20412;-75
2021/05/31 03:58:56;;;;;;;5.82;3.50;;;17.30;64.60;;;;;;6321914;22;20022;-74
2021/05/31 04:01:22;;;;;;;5.43;3.83;;;17.30;64.60;;;;;;6321621;22;20011;-76
2021/05/31 04:03:49;;;;;;;4.57;3.60;;;17.30;64.60;;;;;;6311286;22;20026;-75
2021/05/31 04:11:37;;;;;;;4.65;3.67;;;17.30;64.60;;;;;;6312104;22;20080;-75
2021/05/31 04:14:13;;;;;;;4.60;3.58;;;17.30;64.60;;;;;;6321409;22;20281;-74
2021/05/31 04:16:41;;;;;;;4.32;3.70;;;17.30;64.60;;;;;;6321692;22;20010;-75
2021/05/31 04:19:08;;;;;;;5.85;4.10;;;17.20;64.50;;;;;;6311758;22;20331;-76
2021/05/31 04:21:35;;;;;;;6.32;3.85;;;17.30;64.60;;;;;;6284410;22;20012;-76
2021/05/31 04:24:02;;;;;;;5.47;4.07;;;17.30;64.60;;;;;;6311158;22;20019;-75
2021/05/31 04:26:29;;;;;;;4.72;4.32;;;17.30;64.70;;;;;;6310813;22;20438;-76
2021/05/31 04:28:55;;;;;;;5.90;4.55;;;17.30;64.70;;;;;;6284500;22;20058;-75
2021/05/31 04:31:22;;;;;;;5.68;4.13;;;17.20;64.70;;;;;;6294941;22;20038;-76
2021/05/31 04:33:48;;;;;;;5.57;4.32;;;17.20;64.70;;;;;;6311266;22;20007;-75
2021/05/31 04:36:18;;;;;;;6.78;4.47;;;17.20;64.70;;;;;;6296003;22;20007;-76
2021/05/31 04:38:45;;;;;;;5.47;4.57;;;17.20;64.60;;;;;;6320968;22;20096;-75
2021/05/31 04:41:11;;;;;;;6.20;4.53;;;17.30;64.70;;;;;;6310920;22;20019;-75
2021/05/31 04:43:38;;;;;;;5.20;4.60;;;17.20;64.60;;;;;;6321853;22;20458;-74
2021/05/31 04:46:04;;;;;;;5.03;4.47;;;17.30;64.70;;;;;;6320779;22;20011;-74
2021/05/31 04:48:31;;;;;;;6.63;4.85;;;17.20;64.70;;;;;;6320056;22;20435;-76
2021/05/31 04:50:57;;;;;;;5.40;4.90;;;17.20;64.70;;;;;;6321230;22;20007;-75
2021/05/31 04:53:26;;;;;;;7.43;5.28;;;17.20;64.70;;;;;;6321088;22;20019;-75
2021/05/31 04:55:54;;;;;;;5.88;5.30;;;17.30;64.70;;;;;;6321298;22;20018;-75
2021/05/31 04:58:21;;;;;;;5.90;5.25;;;17.20;65.30;;;;;;6283608;22;20059;-76
2021/05/31 05:00:47;;;;;;;5.82;4.93;;;17.20;64.70;;;;;;6321632;22;20072;-74
2021/05/31 05:03:13;;;;;;;7.72;5.38;;;17.20;64.70;;;;;;6321037;22;20007;-75
2021/05/31 05:05:39;;;;;;;7.15;5.70;;;17.20;64.60;;;;;;6310882;22;20047;-74
2021/05/31 05:08:05;;;;;;;6.53;5.15;;;17.20;64.70;;;;;;6321572;22;20039;-74
2021/05/31 05:10:32;;;;;;;7.25;6.13;;;17.20;64.70;;;;;;6320597;22;20039;-76
2021/05/31 05:12:58;;;;;;;7.40;5.65;;;17.20;64.60;;;;;;6293862;22;20007;-74
2021/05/31 05:15:25;;;;;;;6.22;5.63;;;17.20;64.70;;;;;;6321281;22;20099;-74
2021/05/31 05:17:52;;;;;;;6.75;5.95;;;17.20;64.70;;;;;;6322013;22;20011;-75
2021/05/31 05:20:20;;;;;;;6.32;5.60;;;17.20;64.70;;;;;;6320774;22;20015;-75
2021/05/31 05:22:46;;;;;;;6.72;5.95;;;17.20;65.30;;;;;;6320542;22;20033;-76
2021/05/31 05:25:13;;;;;;;6.20;5.60;;;17.20;64.70;;;;;;6320822;22;20023;-75
2021/05/31 05:27:42;;;;;;;7.55;5.65;;;17.20;64.60;;;;;;6284517;22;20034;-76
2021/05/31 05:30:10;;;;;;;6.45;5.22;;;17.20;64.70;;;;;;6310404;22;20015;-75
2021/05/31 05:32:36;;;;;;;7.30;5.40;;;17.10;64.70;;;;;;6320146;22;20334;-75
2021/05/31 05:38:13;;;;;;;6.57;5.40;;;17.20;64.70;;;;;;6320747;22;20022;-74
2021/05/31 05:48:16;;;;;;;5.80;5.20;;;17.20;64.70;;;;;;6309979;22;20116;-75
2021/05/31 05:50:42;;;;;;;5.18;4.63;;;17.20;64.70;;;;;;6310131;22;20011;-75
2021/05/31 05:53:08;;;;;;;5.78;5.18;;;17.20;64.70;;;;;;6321269;22;20313;-75
2021/05/31 05:55:34;;;;;;;5.55;5.00;;;17.20;64.80;;;;;;6320446;22;20011;-76
2021/05/31 05:58:00;;;;;;;4.82;4.38;;;17.20;64.80;;;;;;6320459;22;20014;-75
2021/05/31 06:00:28;;;;;;;5.82;4.60;;;17.20;64.80;;;;;;6320083;22;20329;-76
2021/05/31 06:02:54;;;;;;;5.55;4.50;;;17.10;64.80;;;;;;6321043;22;20011;-74
2021/05/31 06:05:21;;;;;;;5.70;4.70;;;17.10;64.80;;;;;;6310113;22;20007;-76
2021/05/31 06:07:47;;;;;;;5.10;4.57;;;17.10;64.80;;;;;;6310052;22;20011;-74
2021/05/31 06:10:14;;;;;;;5.95;4.82;;;17.10;64.80;;;;;;6320321;22;20007;-76
2021/05/31 06:12:40;;;;;;;5.40;4.90;;;17.10;64.80;;;;;;6319950;22;20007;-76
2021/05/31 06:15:12;;;;;;;5.50;5.00;;;17.20;64.80;;;;;;6320289;22;20082;-74
2021/05/31 06:17:39;;;;;;;5.93;4.70;;;17.10;64.80;;;;;;6321173;22;20045;-75
2021/05/31 06:20:06;;;;;;;8.15;4.65;;;17.20;64.90;;;;;;6293180;22;20412;-75
2021/05/31 06:22:35;;;;;;;4.80;4.30;;;17.20;65.00;;;;;;6320042;22;20014;-76
2021/05/31 06:25:01;;;;;;;4.80;4.40;;;17.10;64.90;;;;;;6320381;22;20288;-76
2021/05/31 06:27:28;;;;;;;5.88;4.70;;;17.10;64.90;;;;;;6319851;22;20434;-75
2021/05/31 06:29:54;;;;;;;4.63;4.22;;;17.20;64.90;;;;;;6319888;22;20011;-76
2021/05/31 06:32:20;;;;;;;4.25;3.95;;;17.20;64.90;;;;;;6292696;22;20086;-75
2021/05/31 06:34:46;;;;;;;4.78;4.32;;;17.10;64.90;;;;;;6320009;22;20042;-76
2021/05/31 06:37:13;;;;;;;5.50;5.00;;;17.10;64.90;;;;;;6320177;22;20015;-76
2021/05/31 06:39:59;;;;;;;4.97;4.38;;;17.20;65.00;;;;;;6287298;22;20344;-75
2021/05/31 06:42:24;;;;;;;6.20;4.43;;;17.10;64.90;;;;;;6310967;22;20011;-75
2021/05/31 06:44:50;;;;;;;5.03;4.40;;;17.10;65.00;;;;;;6321221;22;20018;-76
2021/05/31 06:47:17;;;;;;;5.15;4.43;;;17.20;65.00;;;;;;6319885;22;20014;-75
2021/05/31 06:49:44;;;;;;;5.00;4.50;;;17.20;65.00;;;;;;6314110;22;20082;-76
2021/05/31 06:52:10;;;;;;;4.40;4.00;;;17.20;65.00;;;;;;6320115;22;20327;-76
2021/05/31 06:54:35;;;;;;;4.68;4.28;;;17.10;65.00;;;;;;6319946;22;20041;-74
2021/05/31 06:57:02;;;;;;;4.57;4.13;;;17.10;65.00;;;;;;6319834;22;20352;-74
2021/05/31 06:59:28;;;;;;;4.93;4.45;;;17.10;65.00;;;;;;6320541;22;20011;-76
2021/05/31 07:01:54;;;;;;;4.78;4.38;;;17.10;65.10;;;;;;6309838;22;20325;-76
2021/05/31 07:04:20;;;;;;;4.60;4.20;;;17.10;65.10;;;;;;6319657;22;20076;-74
2021/05/31 07:06:46;;;;;;;5.40;3.95;;;17.10;65.10;;;;;;6319823;22;20007;-76
2021/05/31 07:09:12;;;;;;;6.25;4.20;;;17.10;65.20;;;;;;6319626;22;20030;-76
2021/05/31 07:11:42;;;;;;;4.55;4.15;;;17.20;65.20;;;;;;6309522;22;20015;-75
2021/05/31 07:14:12;;;;;;;4.05;3.65;;;17.10;65.20;;;;;;6320386;22;20035;-75
2021/05/31 07:16:39;;;;;;;4.88;4.38;;;17.10;65.20;;;;;;6319911;22;20109;-75
2021/05/31 07:19:05;;;;;;;4.43;3.78;;;17.10;65.20;;;;;;6320010;22;20011;-75
2021/05/31 07:21:32;;;;;;;4.60;4.20;;;17.10;65.20;;;;;;6310553;22;20094;-75
2021/05/31 07:23:58;;;;;;;4.93;4.38;;;17.10;65.20;;;;;;6320941;22;20049;-76
2021/05/31 07:26:24;;;;;;;4.97;4.30;;;17.10;65.30;;;;;;6322292;22;20383;-76
2021/05/31 07:28:50;;;;;;;5.53;4.20;;;17.10;65.30;;;;;;6322067;22;20019;-75
2021/05/31 07:31:16;;;;;;;4.40;4.03;;;17.10;65.20;;;;;;6321949;22;20007;-74
2021/05/31 07:33:42;;;;;;;4.70;4.25;;;17.20;65.30;;;;;;6322281;22;20329;-75
2021/05/31 07:36:07;;;;;;;5.28;4.30;;;17.10;65.20;;;;;;6322314;22;20011;-75
2021/05/31 07:38:35;;;;;;;4.55;4.15;;;17.10;65.20;;;;;;6295061;22;20015;-75
2021/05/31 07:41:01;;;;;;;6.43;4.85;;;17.10;65.20;;;;;;6322413;22;20083;-75
2021/05/31 07:43:35;;;;;;;;;;;17.20;65.30;;;;;;6311554;22;20022;-75
2021/05/31 07:46:01;;;;;;;4.78;4.32;;;17.10;65.20;;;;;;6322125;22;19912;-76
2021/05/31 07:48:28;;;;;;;5.00;4.60;;;17.20;65.30;;;;;;6320440;22;20062;-76
2021/05/31 07:51:13;;;;;;;4.95;4.47;;;17.10;65.30;;;;;;6321765;22;20040;-75
2021/05/31 07:53:39;;;;;;;4.63;4.22;;;17.20;65.30;;;;;;6321591;22;20064;-75
2021/05/31 07:56:05;;;;;;;4.80;4.32;;;17.10;65.30;;;;;;6321253;22;20015;-76
2021/05/31 07:58:31;;;;;;;4.90;4.50;;;17.10;65.30;;;;;;6321740;22;20041;-75
2021/05/31 08:00:58;;;;;;;5.13;4.68;;;17.20;65.30;;;;;;6321954;22;20296;-75
2021/05/31 08:03:23;;;;;;;4.60;4.20;;;17.10;65.30;;;;;;6321768;22;20007;-75
2021/05/31 08:05:49;;;;;;;4.97;4.57;;;17.10;65.30;;;;;;6284697;22;20069;-75
2021/05/31 08:08:15;;;;;;;4.70;4.30;;;17.10;65.30;;;;;;6321615;22;20014;-75
2021/05/31 08:10:42;;;;;;;5.30;4.80;;;17.10;65.30;;;;;;6311840;22;20015;-74
2021/05/31 08:13:09;;;;;;;5.25;4.75;;;17.10;65.30;;;;;;6321941;22;20008;-75
2021/05/31 08:15:35;;;;;;;4.60;4.20;;;17.10;65.30;;;;;;6321516;22;20042;-75
2021/05/31 08:18:01;;;;;;;5.53;5.03;;;17.20;65.40;;;;;;6321204;22;20011;-75
2021/05/31 08:20:27;;;;;;;4.97;4.28;;;17.10;65.30;;;;;;6321431;22;20041;-76
2021/05/31 08:22:52;;;;;;;5.28;4.78;;;17.20;65.40;;;;;;6322163;22;20092;-75
2021/05/31 08:25:18;;;;;;;5.68;4.60;;;17.20;65.40;;;;;;6321788;22;20039;-76
2021/05/31 08:27:45;;;;;;;5.38;4.88;;;17.10;65.30;;;;;;6321070;22;20015;-75
2021/05/31 08:30:12;;;;;;;5.63;4.82;;;17.10;65.30;;;;;;6310802;22;20304;-76
2021/05/31 08:32:38;;;;;;;5.22;4.72;;;17.20;65.40;;;;;;6283752;22;20470;-76
2021/05/31 08:35:04;;;;;;;4.97;4.47;;;17.20;65.40;;;;;;6320961;22;20007;-75
2021/05/31 08:37:30;;;;;;;5.57;4.93;;;17.20;65.30;;;;;;6321308;22;20007;-75
2021/05/31 08:39:56;;;;;;;5.57;5.05;;;17.20;65.40;;;;;;6322019;22;20076;-75
2021/05/31 08:42:22;;;;;;;5.00;4.53;;;17.20;65.40;;;;;;6321270;22;20450;-75
2021/05/31 08:44:48;;;;;;;5.13;4.63;;;17.20;65.40;;;;;;6321259;22;20078;-75
2021/05/31 08:47:14;;;;;;;5.93;4.72;;;17.20;65.30;;;;;;6321205;22;20039;-76
2021/05/31 08:49:40;;;;;;;5.05;4.55;;;17.20;65.40;;;;;;6314682;22;20008;-74
2021/05/31 08:52:06;;;;;;;5.32;4.85;;;17.20;65.40;;;;;;6321480;22;20007;-75
2021/05/31 08:54:32;;;;;;;4.90;4.50;;;17.20;65.40;;;;;;6293614;22;20011;-75
2021/05/31 08:56:58;;;;;;;5.55;5.05;;;17.20;65.50;;;;;;6321212;22;20078;-76
2021/05/31 08:59:24;;;;;;;5.70;5.15;;;17.20;65.50;;;;;;6321784;22;20050;-75
2021/05/31 09:01:51;;;;;;;5.78;5.22;;;17.20;65.50;;;;;;6320960;22;20010;-75
2021/05/31 09:04:17;;;;;;;5.18;4.68;;;17.20;65.60;;;;;;6320831;22;20281;-75
2021/05/31 09:06:57;;;;;;;5.60;5.00;;;17.20;65.60;;;;;;6320398;22;20011;-75
2021/05/31 09:09:43;;;;;;;5.70;5.20;;;17.20;65.60;;;;;;6294200;22;20030;-75
2021/05/31 09:12:11;;;;;;;5.78;5.15;;;17.30;65.70;;;;;;6321174;22;20309;-74
2021/05/31 09:14:38;;;;;;;5.30;4.80;;;17.30;65.70;;;;;;6311631;22;20015;-76
2021/05/31 09:17:05;;;;;;;5.78;5.28;;;17.30;65.70;;;;;;6320232;22;20031;-75
2021/05/31 09:19:33;;;;;;;5.97;5.47;;;17.30;65.70;;;;;;6310848;22;20007;-75
2021/05/31 09:22:04;;;;;;;6.15;5.55;;;17.30;65.80;;;;;;6294358;22;20026;-74
2021/05/31 09:24:30;;;;;;;6.70;5.30;;;17.30;65.80;;;;;;6321532;22;20008;-76
2021/05/31 09:26:59;;;;;;;5.72;5.13;;;17.30;65.80;;;;;;6320386;22;20007;-75
2021/05/31 09:29:27;;;;;;;6.00;5.32;;;17.30;65.80;;;;;;6320885;22;20022;-76
2021/05/31 09:31:58;;;;;;;5.97;5.38;;;17.30;65.90;;;;;;6320840;22;20037;-75
2021/05/31 09:34:24;;;;;;;6.20;5.60;;;17.30;65.90;;;;;;6321375;22;20034;-76
2021/05/31 09:36:53;;;;;;;7.45;5.75;;;17.30;65.90;;;;;;6283457;22;20090;-75
2021/05/31 09:39:34;;;;;;;5.82;5.22;;;17.30;65.90;;;;;;6310171;22;20015;-76
2021/05/31 09:42:15;;;;;;;7.80;5.75;;;17.30;65.90;;;;;;6294117;22;20293;-75
2021/05/31 09:44:42;;;;;;;5.68;5.10;;;17.30;65.90;;;;;;6310405;22;20011;-75
2021/05/31 09:47:08;;;;;;;5.93;5.43;;;17.30;66.00;;;;;;6320298;22;20071;-74
2021/05/31 09:49:36;;;;;;;6.03;5.43;;;17.30;66.00;;;;;;6314672;22;20014;-76
2021/05/31 09:52:06;;;;;;;6.25;5.55;;;17.30;66.00;;;;;;6321968;22;20080;-76
2021/05/31 09:54:47;;;;;;;6.05;5.30;;;17.40;66.00;;;;;;6321178;22;20011;-75
2021/05/31 09:57:27;;;;;;;6.60;5.70;;;17.30;66.00;;;;;;6320337;22;20015;-76
2021/05/31 10:00:15;;;;;;;6.43;5.82;;;17.30;66.00;;;;;;6309817;22;20015;-75
2021/05/31 10:03:18;;;;;;;6.00;5.47;;;17.40;66.10;;;;;;6320575;22;20014;-75
2021/05/31 10:10:41;;;;;;;5.90;5.40;;;17.30;66.10;;;;;;6320337;22;20106;-75
2021/05/31 10:13:08;;;;;;;6.10;5.50;;;17.30;66.20;;;;;;6321100;22;20041;-74
2021/05/31 10:15:39;;;;;;;6.40;5.80;;;17.30;66.20;;;;;;6310050;22;20011;-76
2021/05/31 10:18:06;;;;;;;6.63;5.80;;;17.40;66.40;;;;;;6320382;22;20084;-75
2021/05/31 10:20:32;;;;;;;6.53;5.68;;;17.30;66.30;;;;;;6320726;22;20265;-76
2021/05/31 10:22:59;;;;;;;6.03;5.40;;;17.40;66.50;;;;;;6320690;22;20014;-75
2021/05/31 10:25:26;;;;;;;6.20;5.60;;;17.40;66.60;;;;;;6320411;22;20100;-76
2021/05/31 10:27:59;;;;;;;5.97;5.40;;;17.40;66.60;;;;;;6320238;22;20082;-74
2021/05/31 10:30:25;;;;;;;5.82;5.15;;;17.40;66.70;;;;;;6320331;22;20011;-77
2021/05/31 10:32:52;;;;;;;6.38;5.70;;;17.40;66.70;;;;;;6320207;22;20015;-76
2021/05/31 10:35:25;;;;;;;6.10;5.50;;;17.40;66.80;;;;;;6319802;22;20012;-75
2021/05/31 10:37:57;;;;;;;6.97;6.15;;;17.40;66.80;;;;;;6320114;22;20015;-74
2021/05/31 10:40:41;;;;;;;6.28;5.68;;;17.40;66.90;;;;;;6321190;22;20029;-76
2021/05/31 10:43:09;;;;;;;6.50;5.82;;;17.40;66.90;;;;;;6320281;22;20011;-76
2021/05/31 10:45:36;;;;;;;5.70;5.05;;;17.40;66.90;;;;;;6310238;22;20051;-76
2021/05/31 10:48:08;;;;;;;6.35;5.80;;;17.40;67.00;;;;;;6319813;22;20439;-75
2021/05/31 10:50:41;;;;;;;5.72;5.18;;;17.40;67.00;;;;;;6309937;22;20052;-74
2021/05/31 10:53:30;;;;;;;7.40;5.77;;;17.40;67.00;;;;;;6320848;22;20022;-74
2021/05/31 10:56:29;;;;;;;6.47;5.88;;;17.40;67.00;;;;;;6320429;22;20007;-76
2021/05/31 10:58:56;;;;;;;5.90;5.40;;;17.40;66.90;;;;;;6229067;22;20011;-74
2021/05/31 11:01:38;;;;;;;6.18;5.57;;;17.40;67.70;;;;;;6324151;22;20034;-74
2021/05/31 11:04:10;;;;;;;5.95;5.35;;;17.40;67.00;;;;;;6323260;22;20081;-76
2021/05/31 11:06:39;;;;;;;6.45;5.85;;;17.40;67.10;;;;;;6323935;22;20010;-76
2021/05/31 11:09:08;;;;;;;5.55;5.05;;;17.40;67.10;;;;;;6323642;22;20007;-74
2021/05/31 11:11:44;;;;;;;5.93;5.35;;;17.40;67.10;;;;;;6323152;22;20308;-76
2021/05/31 11:14:11;;;;;;;7.03;5.60;;;17.40;67.10;;;;;;6323439;22;20035;-75
2021/05/31 11:16:52;;;;;;;6.50;5.82;;;17.40;67.10;;;;;;6313473;22;20023;-74
2021/05/31 11:19:31;;;;;;;6.25;5.40;;;17.40;67.10;;;;;;6323850;22;20405;-76
2021/05/31 11:21:57;;;;;;;5.68;5.13;;;17.40;67.10;;;;;;6313436;22;20061;-76
2021/05/31 11:24:22;;;;;;;5.85;5.30;;;17.40;67.10;;;;;;6323354;22;20007;-77
2021/05/31 11:26:48;;;;;;;5.70;5.20;;;17.40;67.10;;;;;;6313094;22;20073;-74
2021/05/31 11:29:15;;;;;;;6.00;5.40;;;17.40;67.10;;;;;;6314007;22;20156;-76
2021/05/31 11:31:44;;;;;;;5.90;5.32;;;17.40;67.10;;;;;;6323077;22;20412;-76
2021/05/31 11:34:10;;;;;;;5.82;5.32;;;17.40;67.10;;;;;;6286219;22;20308;-74
2021/05/31 11:36:43;;;;;;;5.88;5.28;;;17.40;67.00;;;;;;6287023;22;20276;-75
2021/05/31 11:39:11;;;;;;;5.63;5.05;;;17.40;67.10;;;;;;6322668;22;20443;-76
2021/05/31 11:41:50;;;;;;;5.70;5.20;;;17.40;67.10;;;;;;6324051;22;20007;-75
2021/05/31 11:44:30;;;;;;;5.82;5.10;;;17.40;67.10;;;;;;6324028;22;20054;-76
2021/05/31 11:47:03;;;;;;;5.97;5.47;;;17.50;67.10;;;;;;6323338;22;20021;-76
2021/05/31 11:49:35;;;;;;;6.10;5.50;;;17.50;67.10;;;;;;6318253;22;20086;-75
2021/05/31 11:52:23;;;;;;;6.13;5.53;;;17.40;67.00;;;;;;6323266;22;20015;-74
2021/05/31 11:54:49;;;;;;;5.80;5.30;;;17.50;67.00;;;;;;6312877;22;20263;-75
2021/05/31 11:57:20;;;;;;;5.65;5.13;;;17.50;67.10;;;;;;6312500;22;20193;-75
2021/05/31 11:59:51;;;;;;;6.00;5.45;;;17.50;67.10;;;;;;6324740;22;20029;-76
2021/05/31 12:02:21;;;;;;;5.65;5.07;;;17.50;67.10;;;;;;6323362;22;20014;-76
2021/05/31 12:04:48;;;;;;;5.72;5.15;;;17.50;67.10;;;;;;6312899;22;20335;-75
2021/05/31 12:07:20;;;;;;;5.57;5.07;;;17.50;67.10;;;;;;6323184;22;20014;-76
2021/05/31 12:09:46;;;;;;;5.55;5.03;;;17.50;67.10;;;;;;6321799;22;20011;-76
2021/05/31 12:12:17;;;;;;;5.75;5.22;;;17.50;67.10;;;;;;6321811;22;20050;-75
2021/05/31 12:14:49;;;;;;;5.95;5.20;;;17.50;67.10;;;;;;6321492;22;20327;-77
2021/05/31 12:17:16;;;;;;;5.70;5.20;;;17.50;67.10;;;;;;6322131;22;20019;-75
2021/05/31 12:19:45;;;;;;;5.95;5.35;;;17.50;67.10;;;;;;6322256;22;20027;-76
2021/05/31 12:22:11;;;;;;;5.32;4.82;;;17.50;67.10;;;;;;6321483;22;20008;-76
2021/05/31 12:24:43;;;;;;;5.57;5.07;;;17.50;67.10;;;;;;6322297;22;20011;-75
2021/05/31 12:27:09;;;;;;;5.95;5.35;;;17.50;67.10;;;;;;6322064;22;20007;-77
2021/05/31 12:29:41;;;;;;;6.03;5.53;;;17.50;67.10;;;;;;6321559;22;20518;-75
2021/05/31 12:32:09;;;;;;;5.50;5.00;;;17.50;67.10;;;;;;6321659;22;20011;-76
2021/05/31 12:34:38;;;;;;;5.57;5.10;;;17.50;67.10;;;;;;6310906;22;20043;-75
2021/05/31 12:37:06;;;;;;;5.47;4.97;;;17.50;67.10;;;;;;6311566;22;20011;-76
2021/05/31 12:39:33;;;;;;;5.45;4.95;;;17.50;67.00;;;;;;6321973;22;20029;-75
2021/05/31 12:42:04;;;;;;;5.72;5.22;;;17.60;67.10;;;;;;6310888;22;20019;-76
2021/05/31 12:44:30;;;;;;;5.38;4.88;;;17.60;67.10;;;;;;6310596;22;20462;-76
2021/05/31 12:47:16;;;;;;;5.68;5.18;;;17.60;67.10;;;;;;6321144;22;20277;-74
2021/05/31 12:49:53;;;;;;;5.60;5.10;;;17.60;67.00;;;;;;6311364;22;20011;-77
2021/05/31 12:52:32;;;;;;;5.90;5.25;;;17.60;67.10;;;;;;6321395;22;20007;-75
2021/05/31 12:55:13;;;;;;;6.13;5.28;;;17.60;67.10;;;;;;6320989;22;20007;-75
2021/05/31 12:57:42;;;;;;;6.05;5.00;;;17.60;67.10;;;;;;6310610;22;20049;-76
2021/05/31 13:00:20;;;;;;;5.45;4.95;;;17.60;67.10;;;;;;6283925;22;20011;-75
2021/05/31 13:02:58;;;;;;;5.28;4.78;;;17.60;67.10;;;;;;6321091;22;20086;-76
2021/05/31 13:05:28;;;;;;;5.97;5.18;;;17.60;67.80;;;;;;6310551;22;20042;-77
2021/05/31 13:07:56;;;;;;;5.47;4.90;;;17.60;67.20;;;;;;6322195;22;20069;-76
2021/05/31 13:10:25;;;;;;;6.80;5.05;;;17.60;67.20;;;;;;6320595;22;20019;-76
2021/05/31 13:12:59;;;;;;;6.15;5.18;;;17.60;67.20;;;;;;6321509;22;20011;-76
2021/05/31 13:15:36;;;;;;;5.63;5.13;;;17.60;67.20;;;;;;6311307;22;20015;-76
2021/05/31 13:18:12;;;;;;;6.18;5.38;;;17.60;67.30;;;;;;6320901;22;20013;-76